Terminal Aerodrome Forecast
Issued by NWS

Home | Current Version | Previous Version | Text Only | Print | Product List | Glossary On
Versions: 1 2 3 4 5 6 7 8 9 10 11 12 13 14
000
FTUS44 KJAN 261120
TAFHKS
TAF
KHKS 261120Z 2612/2712 27009KT P6SM VCSH BKN008
     FM261400 28011G23KT P6SM VCSH BKN015
     FM262200 30009KT P6SM BKN025
     FM270000 31007KT P6SM FEW025 SCT250
     FM270600 31003KT 3SM BR FEW090 SCT250=

USA.gov is the U.S. government's official web portal to all federal, state and local government web resources and services.